createdAt,value
2018-09-27T00:01:17.982Z,67.28
2018-09-27T00:03:47.008Z,67.23
2018-09-27T00:06:17.683Z,67.66
2018-09-27T00:08:46.700Z,67.86
2018-09-27T00:11:15.638Z,68.19
2018-09-27T00:13:44.593Z,68.50
2018-09-27T00:16:13.584Z,68.15
2018-09-27T00:18:42.620Z,68.23
2018-09-27T00:21:11.563Z,68.42
2018-09-27T00:23:40.495Z,68.74
2018-09-27T00:26:09.663Z,68.47
2018-09-27T00:28:38.666Z,68.39
2018-09-27T00:31:07.883Z,68.40
2018-09-27T00:33:36.965Z,68.42
2018-09-27T00:36:06.173Z,68.92
2018-09-27T00:38:35.623Z,68.92
2018-09-27T00:41:04.578Z,68.97
2018-09-27T00:43:33.387Z,68.68
2018-09-27T00:46:02.352Z,69.04
2018-09-27T00:48:31.350Z,69.29
2018-09-27T00:51:00.361Z,69.52
2018-09-27T00:53:32.881Z,69.19
2018-09-27T00:56:01.759Z,69.43
2018-09-27T00:58:30.789Z,69.29
2018-09-27T01:00:59.711Z,69.24
2018-09-27T01:03:28.744Z,69.73
2018-09-27T01:05:57.656Z,70.25
2018-09-27T01:08:26.611Z,70.07
2018-09-27T01:10:55.550Z,69.79
2018-09-27T01:13:24.379Z,69.92
2018-09-27T01:15:53.172Z,69.54
2018-09-27T01:18:22.068Z,69.90
2018-09-27T01:20:50.948Z,69.94
2018-09-27T01:23:19.836Z,69.68
2018-09-27T01:25:48.663Z,70.43
2018-09-27T01:28:17.473Z,70.12
2018-09-27T01:30:46.405Z,70.71
2018-09-27T01:33:15.289Z,70.14
2018-09-27T01:35:44.193Z,70.68
2018-09-27T01:38:13.120Z,70.51
2018-09-27T01:40:42.028Z,70.79
2018-09-27T01:43:10.945Z,71.02
2018-09-27T01:45:39.849Z,70.70
2018-09-27T01:48:08.715Z,71.12
2018-09-27T01:50:37.644Z,71.07
2018-09-27T01:53:06.679Z,70.92
2018-09-27T01:55:35.563Z,70.89
2018-09-27T01:58:04.584Z,70.45
2018-09-27T02:00:33.489Z,70.97
2018-09-27T02:03:02.282Z,70.46
2018-09-27T02:05:31.205Z,70.71
2018-09-27T02:08:00.204Z,70.94
2018-09-27T02:10:29.099Z,71.15
2018-09-27T02:12:58.150Z,70.62
2018-09-27T02:15:27.168Z,70.44
2018-09-27T02:17:56.032Z,70.56
2018-09-27T02:20:24.914Z,70.19
2018-09-27T02:22:53.834Z,70.05
2018-09-27T02:25:22.759Z,69.35
2018-09-27T02:27:51.574Z,68.72
2018-09-27T02:30:20.524Z,68.39
2018-09-27T02:32:49.461Z,68.47
2018-09-27T02:35:18.285Z,67.85
2018-09-27T02:37:47.240Z,67.90
2018-09-27T02:40:16.333Z,67.84
2018-09-27T02:42:45.345Z,67.86
2018-09-27T02:45:14.116Z,67.74
2018-09-27T02:47:44.647Z,67.82
2018-09-27T02:50:13.577Z,67.46
2018-09-27T02:52:42.502Z,67.13
2018-09-27T02:55:11.484Z,67.17
2018-09-27T02:57:40.507Z,66.45
2018-09-27T03:00:09.520Z,66.18
2018-09-27T03:02:38.369Z,66.20
2018-09-27T03:05:07.694Z,66.19
2018-09-27T03:07:36.650Z,66.14
2018-09-27T03:10:05.704Z,65.80
2018-09-27T03:12:34.528Z,65.63
2018-09-27T03:15:03.436Z,65.98
2018-09-27T03:17:32.415Z,65.55
2018-09-27T03:20:01.425Z,65.44
2018-09-27T03:22:30.395Z,65.57
2018-09-27T03:24:59.291Z,65.45
2018-09-27T03:27:28.265Z,65.72
2018-09-27T03:29:57.123Z,65.76
2018-09-27T03:32:25.922Z,65.60
2018-09-27T03:34:54.801Z,65.46
2018-09-27T03:37:23.727Z,65.36
2018-09-27T03:39:52.670Z,65.38
2018-09-27T03:42:21.433Z,65.48
2018-09-27T03:44:50.283Z,65.49
2018-09-27T03:47:19.132Z,65.30
2018-09-27T03:49:48.021Z,65.28
2018-09-27T03:52:16.869Z,65.12
2018-09-27T03:54:45.719Z,65.00
2018-09-27T03:57:14.714Z,65.29
2018-09-27T03:59:43.661Z,65.13
2018-09-27T04:02:12.565Z,65.03
2018-09-27T04:04:41.441Z,65.06
2018-09-27T04:07:10.388Z,64.92
2018-09-27T04:09:39.258Z,64.71
2018-09-27T04:12:08.267Z,65.01
2018-09-27T04:14:37.180Z,64.72
2018-09-27T04:17:06.143Z,64.71
2018-09-27T04:19:35.074Z,64.82
2018-09-27T04:22:04.068Z,64.78
2018-09-27T04:24:33.089Z,63.61
2018-09-27T04:27:01.988Z,64.13
2018-09-27T04:29:30.850Z,63.91
2018-09-27T04:31:59.729Z,63.99
2018-09-27T04:34:28.743Z,63.97
2018-09-27T04:36:57.705Z,63.59
2018-09-27T04:39:26.708Z,63.63
2018-09-27T04:41:55.733Z,63.58
2018-09-27T04:44:24.645Z,63.93
2018-09-27T04:46:53.605Z,63.83
2018-09-27T04:49:22.460Z,63.67
2018-09-27T04:51:51.465Z,63.80
2018-09-27T04:54:20.456Z,63.81
2018-09-27T04:56:49.307Z,63.84
2018-09-27T04:59:18.368Z,63.63
2018-09-27T05:01:47.365Z,63.82
2018-09-27T05:04:16.366Z,63.67
2018-09-27T05:06:45.224Z,63.82
2018-09-27T05:09:14.168Z,63.79
2018-09-27T05:11:43.122Z,63.73
2018-09-27T05:14:12.152Z,63.69
2018-09-27T05:16:41.089Z,63.87
2018-09-27T05:19:10.089Z,63.88
2018-09-27T05:21:39.086Z,63.79
2018-09-27T05:24:08.056Z,64.02
2018-09-27T05:26:36.990Z,63.98
2018-09-27T05:29:05.987Z,63.75
2018-09-27T05:31:34.863Z,64.01
2018-09-27T05:34:03.791Z,63.72
2018-09-27T05:36:32.733Z,63.65
2018-09-27T05:39:01.747Z,63.74
2018-09-27T05:41:30.615Z,63.76
2018-09-27T05:43:59.503Z,63.42
2018-09-27T05:46:28.371Z,63.39
2018-09-27T05:48:57.324Z,63.59
2018-09-27T05:51:26.179Z,63.55
2018-09-27T05:53:55.129Z,63.56
2018-09-27T05:56:24.139Z,63.28
2018-09-27T05:58:53.057Z,63.48
2018-09-27T06:01:21.884Z,63.13
2018-09-27T06:03:50.947Z,63.19
2018-09-27T06:06:19.899Z,63.18
2018-09-27T06:08:48.836Z,62.90
2018-09-27T06:11:17.694Z,62.85
2018-09-27T06:13:46.725Z,61.85
2018-09-27T06:16:15.705Z,61.99
2018-09-27T06:18:44.697Z,61.98
2018-09-27T06:21:13.687Z,61.31
2018-09-27T06:23:42.617Z,61.60
2018-09-27T06:26:11.765Z,61.53
2018-09-27T06:28:40.729Z,61.77
2018-09-27T06:31:09.864Z,60.67
2018-09-27T06:33:38.891Z,61.09
2018-09-27T06:36:08.179Z,61.00
2018-09-27T06:38:37.285Z,60.48
2018-09-27T06:41:06.262Z,60.58
2018-09-27T06:43:35.329Z,59.89
2018-09-27T06:46:04.287Z,59.06
2018-09-27T06:48:33.237Z,57.76
2018-09-27T06:51:02.314Z,58.19
2018-09-27T06:53:31.169Z,58.75
2018-09-27T06:56:00.193Z,58.36
2018-09-27T06:58:29.057Z,57.21
2018-09-27T07:00:57.976Z,57.82
2018-09-27T07:03:26.816Z,57.84
2018-09-27T07:05:55.848Z,57.72
2018-09-27T07:08:24.823Z,57.19
2018-09-27T07:10:53.771Z,57.26
2018-09-27T07:13:22.708Z,57.37
2018-09-27T07:15:51.585Z,57.55
2018-09-27T07:18:20.511Z,57.52
2018-09-27T07:20:49.574Z,57.56
2018-09-27T07:23:18.573Z,57.16
2018-09-27T07:25:47.551Z,57.93
2018-09-27T07:28:16.449Z,58.12
2018-09-27T07:30:45.343Z,57.72
2018-09-27T07:33:15.428Z,58.14
2018-09-27T07:35:44.325Z,57.91
2018-09-27T07:38:13.435Z,58.11
2018-09-27T07:40:42.349Z,58.24
2018-09-27T07:43:13.453Z,58.25
2018-09-27T07:45:42.468Z,58.16
2018-09-27T07:48:11.459Z,58.28
2018-09-27T07:50:40.522Z,57.87
2018-09-27T07:53:10.409Z,57.87
2018-09-27T07:55:39.398Z,57.88
2018-09-27T07:58:08.475Z,57.01
2018-09-27T08:00:37.465Z,57.14
2018-09-27T08:03:06.463Z,56.37
2018-09-27T08:05:35.400Z,55.80
2018-09-27T08:08:04.316Z,56.21
2018-09-27T08:10:33.346Z,55.37
2018-09-27T08:13:03.520Z,56.10
2018-09-27T08:15:32.511Z,55.82
2018-09-27T08:18:01.419Z,55.54
2018-09-27T08:20:30.357Z,55.83
2018-09-27T08:22:59.220Z,56.26
2018-09-27T08:25:28.185Z,55.11
2018-09-27T08:27:57.096Z,55.42
2018-09-27T08:30:25.985Z,55.44
2018-09-27T08:32:54.958Z,55.60
2018-09-27T08:35:23.873Z,55.67
2018-09-27T08:37:52.989Z,55.97
2018-09-27T08:40:22.013Z,55.30
2018-09-27T08:42:51.072Z,55.26
2018-09-27T08:45:20.250Z,55.64
2018-09-27T08:47:49.155Z,55.05
2018-09-27T08:50:18.123Z,54.66
2018-09-27T08:52:47.048Z,54.92
2018-09-27T08:55:17.011Z,54.52
2018-09-27T08:57:45.943Z,54.52
2018-09-27T09:00:14.937Z,55.01
2018-09-27T09:02:43.886Z,54.69
2018-09-27T09:05:13.914Z,54.16
2018-09-27T09:07:42.936Z,53.91
2018-09-27T09:10:12.007Z,52.30
2018-09-27T09:12:41.060Z,52.24
2018-09-27T09:15:11.953Z,51.76
2018-09-27T09:17:40.976Z,50.71
2018-09-27T09:20:10.025Z,50.56
2018-09-27T09:22:39.047Z,50.49
2018-09-27T09:25:08.162Z,48.71
2018-09-27T09:27:37.167Z,48.12
2018-09-27T09:30:06.125Z,48.55
2018-09-27T09:32:35.043Z,47.98
2018-09-27T09:35:04.049Z,47.99
2018-09-27T09:37:32.902Z,48.07
2018-09-27T09:40:01.725Z,47.00
2018-09-27T09:42:30.684Z,47.32
2018-09-27T09:45:00.684Z,46.52
2018-09-27T09:47:29.708Z,46.07
2018-09-27T09:49:58.719Z,45.97
2018-09-27T09:52:27.611Z,46.00
2018-09-27T09:54:58.745Z,46.31
2018-09-27T09:57:27.661Z,45.82
2018-09-27T09:59:56.560Z,45.70
2018-09-27T10:02:25.571Z,45.04
2018-09-27T10:04:55.625Z,45.03
2018-09-27T10:07:24.628Z,44.77
2018-09-27T10:09:53.561Z,43.13
2018-09-27T10:12:22.546Z,42.52
2018-09-27T10:14:52.569Z,42.65
2018-09-27T10:17:21.530Z,43.20
2018-09-27T10:19:50.482Z,43.19
2018-09-27T10:22:19.383Z,43.39
2018-09-27T10:24:49.459Z,42.38
2018-09-27T10:27:18.401Z,41.38
2018-09-27T10:29:47.676Z,38.00
2018-09-27T10:32:16.633Z,39.38
2018-09-27T10:34:45.675Z,39.22
2018-09-27T10:37:14.482Z,39.75
2018-09-27T10:39:43.583Z,39.22
2018-09-27T10:42:12.642Z,38.85
2018-09-27T10:44:42.767Z,39.00
2018-09-27T10:47:11.731Z,37.17
2018-09-27T10:49:40.826Z,38.07
2018-09-27T10:52:09.779Z,39.61
2018-09-27T10:54:39.896Z,40.17
2018-09-27T10:57:08.822Z,40.63
2018-09-27T10:59:37.868Z,41.30
2018-09-27T11:02:07.037Z,40.54
2018-09-27T11:04:36.081Z,39.91
2018-09-27T11:07:05.018Z,39.40
2018-09-27T11:09:33.935Z,39.11
2018-09-27T11:12:02.925Z,38.04
2018-09-27T11:14:33.103Z,38.39
2018-09-27T11:17:02.107Z,38.06
2018-09-27T11:19:31.107Z,38.53
2018-09-27T11:22:00.141Z,37.62
2018-09-27T11:24:29.037Z,38.35
2018-09-27T11:26:58.016Z,38.09
2018-09-27T11:29:32.059Z,37.95
2018-09-27T11:32:05.936Z,37.97
2018-09-27T11:34:35.103Z,37.30
2018-09-27T11:37:04.155Z,37.14
2018-09-27T11:39:33.057Z,38.63
2018-09-27T11:42:01.958Z,37.38
2018-09-27T11:44:30.918Z,37.02
2018-09-27T11:46:59.814Z,36.78
2018-09-27T11:49:28.907Z,37.82
2018-09-27T11:51:57.734Z,37.62
2018-09-27T11:56:54.609Z,35.22
2018-09-27T11:59:23.528Z,34.65
2018-09-27T12:01:52.425Z,33.93
2018-09-27T12:04:21.373Z,33.75
2018-09-27T12:06:50.246Z,34.08
2018-09-27T12:09:19.224Z,33.79
2018-09-27T12:11:48.180Z,33.54
2018-09-27T12:14:17.197Z,33.63
2018-09-27T12:16:46.297Z,31.83
2018-09-27T12:19:15.182Z,33.03
2018-09-27T12:21:44.222Z,32.88
2018-09-27T12:24:13.353Z,32.55
2018-09-27T12:26:42.440Z,29.96
2018-09-27T12:29:11.343Z,28.51
2018-09-27T12:31:40.337Z,26.97
2018-09-27T12:34:09.344Z,26.76
2018-09-27T12:36:40.492Z,25.49
2018-09-27T12:39:11.197Z,25.82
2018-09-27T12:41:40.308Z,25.80
2018-09-27T12:44:09.387Z,25.58
2018-09-27T12:46:40.456Z,26.72
2018-09-27T12:49:09.497Z,26.72
2018-09-27T12:51:38.428Z,26.98
2018-09-27T12:54:07.297Z,26.15
2018-09-27T12:56:36.309Z,26.74
2018-09-27T12:59:05.289Z,27.19
2018-09-27T13:01:34.320Z,26.19
2018-09-27T13:04:03.253Z,25.95
2018-09-27T13:06:32.288Z,25.06
2018-09-27T13:09:01.336Z,25.53
2018-09-27T13:11:30.272Z,25.38
2018-09-27T13:13:59.201Z,25.23
2018-09-27T13:16:29.212Z,25.31
2018-09-27T13:18:58.287Z,24.68
2018-09-27T13:21:27.413Z,23.20
2018-09-27T13:23:56.539Z,21.41
2018-09-27T13:26:25.592Z,17.68
2018-09-27T13:28:54.469Z,17.77
2018-09-27T13:31:23.466Z,16.75
2018-09-27T13:33:52.445Z,15.80
2018-09-27T13:36:21.371Z,16.95
2018-09-27T13:38:50.436Z,16.97
2018-09-27T13:41:19.490Z,14.57
2018-09-27T13:43:48.454Z,14.26
2018-09-27T13:46:18.432Z,14.71
2018-09-27T13:48:47.429Z,14.16
2018-09-27T13:51:16.479Z,13.63
2018-09-27T13:53:45.391Z,14.14
2018-09-27T13:56:14.412Z,12.56
2018-09-27T13:58:43.452Z,13.34
2018-09-27T14:01:12.434Z,13.96
2018-09-27T14:03:41.415Z,13.60
2018-09-27T14:06:15.408Z,12.37
2018-09-27T14:08:44.489Z,14.46
2018-09-27T14:11:13.463Z,13.62
2018-09-27T14:13:42.390Z,12.91
2018-09-27T14:16:11.531Z,12.34
2018-09-27T14:18:40.389Z,12.92
2018-09-27T14:21:09.301Z,13.30
2018-09-27T14:23:38.225Z,13.32
2018-09-27T14:26:15.861Z,14.22
2018-09-27T14:28:44.796Z,13.82
2018-09-27T14:31:13.645Z,13.18
2018-09-27T14:33:42.547Z,14.21
2018-09-27T14:36:11.476Z,13.22
2018-09-27T14:38:40.613Z,14.21
2018-09-27T14:41:09.688Z,14.25
2018-09-27T14:43:38.646Z,14.50
2018-09-27T14:46:07.719Z,12.19
2018-09-27T14:48:36.671Z,12.85
2018-09-27T14:51:05.566Z,13.76
2018-09-27T14:53:34.569Z,14.97
2018-09-27T14:56:03.595Z,14.33
2018-09-27T14:58:32.611Z,12.71
2018-09-27T15:01:01.548Z,13.09
2018-09-27T15:03:30.593Z,14.33
2018-09-27T15:05:59.445Z,15.39
2018-09-27T15:08:30.529Z,14.17
2018-09-27T15:10:59.507Z,13.81
2018-09-27T15:13:28.541Z,13.50
2018-09-27T15:15:57.507Z,12.22
2018-09-27T15:18:26.569Z,13.49
2018-09-27T15:20:55.474Z,12.16
2018-09-27T15:23:24.485Z,12.03
2018-09-27T15:25:53.354Z,11.07
2018-09-27T15:28:23.380Z,12.39
2018-09-27T15:30:52.464Z,14.07
2018-09-27T15:33:21.349Z,15.28
2018-09-27T15:35:50.149Z,16.07
2018-09-27T15:38:26.484Z,16.09
2018-09-27T15:40:55.339Z,15.14
2018-09-27T15:43:24.342Z,16.48
2018-09-27T15:45:53.295Z,15.52
2018-09-27T15:48:22.256Z,16.34
2018-09-27T15:50:51.132Z,16.78
2018-09-27T15:53:19.993Z,18.33
2018-09-27T15:55:49.103Z,18.01
2018-09-27T15:58:18.012Z,17.21
2018-09-27T16:00:47.106Z,17.50
2018-09-27T16:03:16.078Z,19.03
2018-09-27T16:05:45.030Z,18.95
2018-09-27T16:08:14.109Z,20.82
2018-09-27T16:10:42.948Z,22.41
2018-09-27T16:13:11.840Z,22.86
2018-09-27T16:17:14.457Z,22.19
2018-09-27T16:19:43.323Z,22.63
2018-09-27T16:22:12.153Z,24.20
2018-09-27T16:24:41.392Z,23.99
2018-09-27T16:27:10.385Z,25.46
2018-09-27T16:29:39.394Z,25.96
2018-09-27T16:32:08.391Z,26.32
2018-09-27T16:34:37.382Z,27.47
2018-09-27T16:37:06.431Z,27.85
2018-09-27T16:39:35.398Z,28.78
2018-09-27T16:42:04.659Z,29.89
2018-09-27T16:44:33.943Z,31.51
2018-09-27T16:47:03.167Z,32.27
2018-09-27T16:49:32.383Z,32.96
2018-09-27T16:52:01.556Z,33.96
2018-09-27T16:54:30.710Z,35.24
2018-09-27T16:56:59.915Z,34.93
2018-09-27T16:59:29.131Z,35.72
2018-09-27T17:01:58.576Z,36.68
2018-09-27T17:04:27.879Z,37.37
2018-09-27T17:06:57.297Z,38.03
2018-09-27T17:09:26.484Z,38.96
2018-09-27T17:11:55.633Z,39.86
2018-09-27T17:14:24.928Z,41.41
2018-09-27T17:16:54.297Z,42.04
2018-09-27T17:19:23.492Z,43.23
2018-09-27T17:21:52.795Z,44.17
2018-09-27T17:24:22.195Z,45.08
2018-09-27T17:26:51.593Z,46.01
2018-09-27T17:29:20.959Z,46.68
2018-09-27T17:31:50.289Z,47.69
2018-09-27T17:34:19.691Z,48.50
2018-09-27T17:36:49.037Z,49.65
2018-09-27T17:39:18.489Z,50.33
2018-09-27T17:41:47.910Z,51.15
2018-09-27T17:44:17.372Z,52.07
2018-09-27T17:46:46.965Z,53.11
2018-09-27T17:49:16.323Z,53.80
2018-09-27T17:51:45.792Z,54.64
2018-09-27T17:54:15.194Z,55.44
2018-09-27T17:56:44.632Z,55.97
2018-09-27T17:59:14.648Z,56.81
2018-09-27T18:01:44.202Z,57.13
2018-09-27T18:04:13.565Z,57.73
2018-09-27T18:06:42.936Z,58.10
2018-09-27T18:09:13.498Z,59.31
2018-09-27T18:11:43.157Z,59.52
2018-09-27T18:14:12.665Z,60.20
2018-09-27T18:16:42.101Z,61.16
2018-09-27T18:19:11.557Z,62.00
2018-09-27T18:21:41.062Z,62.36
2018-09-27T18:24:10.548Z,62.57
2018-09-27T18:26:40.066Z,62.81
2018-09-27T18:29:09.432Z,63.60
2018-09-27T18:31:39.167Z,63.52
2018-09-27T18:34:08.615Z,63.93
2018-09-27T18:36:38.012Z,64.08
2018-09-27T18:39:10.496Z,64.76
2018-09-27T18:41:39.998Z,65.44
2018-09-27T18:44:09.836Z,65.30
2018-09-27T18:46:39.579Z,65.73
2018-09-27T18:49:09.698Z,66.15
2018-09-27T18:51:40.118Z,66.44
2018-09-27T18:54:09.591Z,66.85
2018-09-27T18:56:38.997Z,67.51
2018-09-27T18:59:09.084Z,67.42
2018-09-27T19:01:38.737Z,68.32
2018-09-27T19:04:08.265Z,68.26
2018-09-27T19:06:37.700Z,68.52
2018-09-27T19:09:10.207Z,68.97
2018-09-27T19:11:40.017Z,69.02
2018-09-27T19:14:09.498Z,69.54
2018-09-27T19:16:39.297Z,70.29
2018-09-27T19:19:09.852Z,70.55
2018-09-27T19:21:40.287Z,70.89
2018-09-27T19:24:09.637Z,71.16
2018-09-27T19:26:39.152Z,71.37
2018-09-27T19:29:08.725Z,71.31
2018-09-27T19:31:38.612Z,72.13
2018-09-27T19:34:08.161Z,72.13
2018-09-27T19:36:37.697Z,72.67
2018-09-27T19:39:09.377Z,72.73
2018-09-27T19:41:39.058Z,73.05
2018-09-27T19:44:08.712Z,73.26
2018-09-27T19:46:38.122Z,73.75
2018-09-27T19:49:07.621Z,73.86
2018-09-27T19:51:37.048Z,74.13
2018-09-27T19:54:06.642Z,74.48
2018-09-27T19:56:36.037Z,74.31
2018-09-27T19:59:05.570Z,74.35
2018-09-27T20:01:35.036Z,74.54
2018-09-27T20:04:04.474Z,74.93
2018-09-27T20:06:34.764Z,74.92
2018-09-27T20:09:07.421Z,75.77
2018-09-27T20:11:37.828Z,75.69
2018-09-27T20:14:07.627Z,75.53
2018-09-27T20:16:37.351Z,75.78
2018-09-27T20:19:08.024Z,76.62
2018-09-27T20:21:38.127Z,77.02
2018-09-27T20:24:08.756Z,77.13
2018-09-27T20:26:38.244Z,77.30
2018-09-27T20:29:07.909Z,77.93
2018-09-27T20:31:37.565Z,77.80
2018-09-27T20:34:07.155Z,77.69
2018-09-27T20:36:36.677Z,77.63
2018-09-27T20:39:06.808Z,77.87
2018-09-27T20:41:36.472Z,77.65
2018-09-27T20:44:05.948Z,77.82
2018-09-27T20:46:35.407Z,77.96
2018-09-27T20:49:04.920Z,78.19
2018-09-27T20:51:34.409Z,78.51
2018-09-27T20:54:03.963Z,78.63
2018-09-27T20:56:33.871Z,78.62
2018-09-27T20:59:03.312Z,79.26
2018-09-27T21:01:32.754Z,79.21
2018-09-27T21:04:02.159Z,79.32
2018-09-27T21:06:31.549Z,79.41
2018-09-27T21:09:02.972Z,79.59
2018-09-27T21:11:32.376Z,79.43
2018-09-27T21:14:01.753Z,79.47
2018-09-27T21:16:30.867Z,79.90
2018-09-27T21:18:59.940Z,80.28
2018-09-27T21:21:28.948Z,80.02
2018-09-27T21:23:58.019Z,80.05
2018-09-27T21:26:27.086Z,79.64
2018-09-27T21:28:57.037Z,79.35
2018-09-27T21:31:25.931Z,79.98
2018-09-27T21:33:54.946Z,80.08
2018-09-27T21:36:24.185Z,79.05
2018-09-27T21:38:54.271Z,79.32
2018-09-27T21:41:23.273Z,78.90
2018-09-27T21:43:52.368Z,78.31
2018-09-27T21:46:21.265Z,78.18
2018-09-27T21:48:50.219Z,78.06
2018-09-27T21:51:19.239Z,77.94
2018-09-27T21:53:48.327Z,77.53
2018-09-27T21:56:17.357Z,77.35
2018-09-27T21:58:46.253Z,77.72
2018-09-27T22:01:15.142Z,77.60
2018-09-27T22:03:44.015Z,77.70
2018-09-27T22:06:13.005Z,77.92
2018-09-27T22:08:42.009Z,77.72
2018-09-27T22:11:11.108Z,77.49
2018-09-27T22:13:40.003Z,76.90
2018-09-27T22:16:08.984Z,77.53
2018-09-27T22:18:38.903Z,77.37
2018-09-27T22:21:07.988Z,77.79
2018-09-27T22:23:36.971Z,77.59
2018-09-27T22:26:05.973Z,77.76
2018-09-27T22:28:35.308Z,78.44
2018-09-27T22:31:04.257Z,78.52
2018-09-27T22:33:33.167Z,78.20
2018-09-27T22:36:02.094Z,78.56
2018-09-27T22:38:32.368Z,78.31
2018-09-27T22:41:01.416Z,78.39
2018-09-27T22:43:30.360Z,78.74
2018-09-27T22:45:59.263Z,80.02
2018-09-27T22:48:28.057Z,82.48
2018-09-27T22:50:57.267Z,80.60
2018-09-27T22:53:26.300Z,80.00
2018-09-27T22:55:55.232Z,80.29
2018-09-27T22:58:24.068Z,81.82
2018-09-27T23:00:53.324Z,82.17
2018-09-27T23:03:22.296Z,81.19
2018-09-27T23:05:51.621Z,80.37
2018-09-27T23:08:20.600Z,80.37
2018-09-27T23:10:49.774Z,80.27
2018-09-27T23:13:18.603Z,80.63
2018-09-27T23:15:47.582Z,79.95
2018-09-27T23:18:16.416Z,80.59
2018-09-27T23:20:45.344Z,80.36
2018-09-27T23:23:14.189Z,80.67
2018-09-27T23:25:43.029Z,81.00
2018-09-27T23:28:11.966Z,81.07
2018-09-27T23:30:40.957Z,81.17
2018-09-27T23:33:09.778Z,80.94
2018-09-27T23:35:38.632Z,81.79
2018-09-27T23:38:07.538Z,82.07
2018-09-27T23:40:36.464Z,81.64
2018-09-27T23:43:05.676Z,81.53
2018-09-27T23:45:34.649Z,81.49
2018-09-27T23:48:03.497Z,81.71
2018-09-27T23:50:32.674Z,81.27
2018-09-27T23:53:01.564Z,81.61
2018-09-27T23:55:30.576Z,82.04
2018-09-27T23:57:59.599Z,81.95
